sensor_id;sensor_type;location;lat;lon;timestamp;P1;durP1;ratioP1;P2;durP2;ratioP2
50769;SDS011;36740;48.698;11.472;2023-08-06T00:01:18;2.97;;;1.63;;
50769;SDS011;36740;48.698;11.472;2023-08-06T00:04:08;2.03;;;1.65;;
50769;SDS011;36740;48.698;11.472;2023-08-06T00:07:18;3.47;;;2.25;;
50769;SDS011;36740;48.698;11.472;2023-08-06T00:10:21;1.33;;;1.30;;
50769;SDS011;36740;48.698;11.472;2023-08-06T00:13:08;1.67;;;1.58;;
50769;SDS011;36740;48.698;11.472;2023-08-06T00:16:18;1.80;;;1.67;;
50769;SDS011;36740;48.698;11.472;2023-08-06T00:26:32;1.90;;;1.38;;
50769;SDS011;36740;48.698;11.472;2023-08-06T00:36:24;3.15;;;2.33;;
50769;SDS011;36740;48.698;11.472;2023-08-06T00:39:16;2.35;;;1.80;;
50769;SDS011;36740;48.698;11.472;2023-08-06T00:42:06;4.10;;;2.53;;
50769;SDS011;36740;48.698;11.472;2023-08-06T00:44:58;4.30;;;2.03;;
50769;SDS011;36740;48.698;11.472;2023-08-06T00:47:57;2.80;;;2.08;;
50769;SDS011;36740;48.698;11.472;2023-08-06T00:51:17;4.40;;;1.92;;
50769;SDS011;36740;48.698;11.472;2023-08-06T00:54:22;2.55;;;2.22;;
50769;SDS011;36740;48.698;11.472;2023-08-06T01:03:59;3.27;;;2.20;;
50769;SDS011;36740;48.698;11.472;2023-08-06T01:06:47;3.70;;;2.38;;
50769;SDS011;36740;48.698;11.472;2023-08-06T01:13:00;5.03;;;2.72;;
50769;SDS011;36740;48.698;11.472;2023-08-06T01:16:09;4.53;;;2.63;;
50769;SDS011;36740;48.698;11.472;2023-08-06T01:18:59;4.55;;;2.92;;
50769;SDS011;36740;48.698;11.472;2023-08-06T01:22:11;4.30;;;2.35;;
50769;SDS011;36740;48.698;11.472;2023-08-06T01:25:17;3.65;;;1.98;;
50769;SDS011;36740;48.698;11.472;2023-08-06T01:31:35;4.88;;;2.55;;
50769;SDS011;36740;48.698;11.472;2023-08-06T01:34:44;2.38;;;1.80;;
50769;SDS011;36740;48.698;11.472;2023-08-06T01:37:52;4.28;;;2.45;;
50769;SDS011;36740;48.698;11.472;2023-08-06T01:41:02;4.22;;;1.83;;
50769;SDS011;36740;48.698;11.472;2023-08-06T01:44:01;14.70;;;3.05;;
50769;SDS011;36740;48.698;11.472;2023-08-06T01:47:01;4.18;;;2.55;;
50769;SDS011;36740;48.698;11.472;2023-08-06T01:49:58;4.13;;;2.67;;
50769;SDS011;36740;48.698;11.472;2023-08-06T01:53:26;3.55;;;1.88;;
50769;SDS011;36740;48.698;11.472;2023-08-06T01:57:14;5.18;;;2.85;;
50769;SDS011;36740;48.698;11.472;2023-08-06T02:06:37;4.28;;;2.80;;
50769;SDS011;36740;48.698;11.472;2023-08-06T02:09:34;3.97;;;2.90;;
50769;SDS011;36740;48.698;11.472;2023-08-06T02:16:00;10.73;;;3.35;;
50769;SDS011;36740;48.698;11.472;2023-08-06T02:18:49;4.80;;;3.20;;
50769;SDS011;36740;48.698;11.472;2023-08-06T02:21:38;2.53;;;2.33;;
50769;SDS011;36740;48.698;11.472;2023-08-06T02:24:34;2.78;;;2.03;;
50769;SDS011;36740;48.698;11.472;2023-08-06T02:27:23;7.18;;;2.85;;
50769;SDS011;36740;48.698;11.472;2023-08-06T02:30:22;4.47;;;2.75;;
50769;SDS011;36740;48.698;11.472;2023-08-06T02:33:14;4.53;;;2.75;;
50769;SDS011;36740;48.698;11.472;2023-08-06T02:36:04;5.90;;;3.35;;
50769;SDS011;36740;48.698;11.472;2023-08-06T02:38:55;4.15;;;2.35;;
50769;SDS011;36740;48.698;11.472;2023-08-06T02:41:43;4.03;;;3.25;;
50769;SDS011;36740;48.698;11.472;2023-08-06T02:44:40;5.07;;;3.35;;
50769;SDS011;36740;48.698;11.472;2023-08-06T02:47:30;4.47;;;2.53;;
50769;SDS011;36740;48.698;11.472;2023-08-06T02:50:30;7.53;;;3.45;;
50769;SDS011;36740;48.698;11.472;2023-08-06T02:57:24;4.20;;;2.55;;
50769;SDS011;36740;48.698;11.472;2023-08-06T03:00:38;5.40;;;3.00;;
50769;SDS011;36740;48.698;11.472;2023-08-06T03:07:03;6.00;;;3.15;;
50769;SDS011;36740;48.698;11.472;2023-08-06T03:13:12;4.50;;;2.42;;
50769;SDS011;36740;48.698;11.472;2023-08-06T03:16:27;5.95;;;3.50;;
50769;SDS011;36740;48.698;11.472;2023-08-06T03:19:19;7.32;;;3.65;;
50769;SDS011;36740;48.698;11.472;2023-08-06T03:22:17;8.32;;;3.45;;
50769;SDS011;36740;48.698;11.472;2023-08-06T03:25:08;6.32;;;3.50;;
50769;SDS011;36740;48.698;11.472;2023-08-06T03:31:07;5.68;;;3.30;;
50769;SDS011;36740;48.698;11.472;2023-08-06T03:33:54;5.72;;;2.72;;
50769;SDS011;36740;48.698;11.472;2023-08-06T03:39:59;8.82;;;4.03;;
50769;SDS011;36740;48.698;11.472;2023-08-06T03:43:10;6.63;;;3.33;;
50769;SDS011;36740;48.698;11.472;2023-08-06T03:46:03;6.60;;;3.58;;
50769;SDS011;36740;48.698;11.472;2023-08-06T03:49:00;4.70;;;3.20;;
50769;SDS011;36740;48.698;11.472;2023-08-06T03:55:33;4.38;;;2.78;;
50769;SDS011;36740;48.698;11.472;2023-08-06T03:58:35;7.47;;;3.58;;
50769;SDS011;36740;48.698;11.472;2023-08-06T04:01:34;6.00;;;3.45;;
50769;SDS011;36740;48.698;11.472;2023-08-06T04:07:59;4.78;;;3.35;;
50769;SDS011;36740;48.698;11.472;2023-08-06T04:11:03;5.97;;;3.95;;
50769;SDS011;36740;48.698;11.472;2023-08-06T04:14:18;6.38;;;3.40;;
50769;SDS011;36740;48.698;11.472;2023-08-06T04:17:21;8.15;;;4.97;;
50769;SDS011;36740;48.698;11.472;2023-08-06T04:23:47;7.13;;;4.10;;
50769;SDS011;36740;48.698;11.472;2023-08-06T04:26:45;6.35;;;3.47;;
50769;SDS011;36740;48.698;11.472;2023-08-06T04:33:01;9.30;;;4.57;;
50769;SDS011;36740;48.698;11.472;2023-08-06T04:36:02;7.75;;;4.32;;
50769;SDS011;36740;48.698;11.472;2023-08-06T04:38:58;10.38;;;4.50;;
50769;SDS011;36740;48.698;11.472;2023-08-06T04:42:03;8.52;;;3.85;;
50769;SDS011;36740;48.698;11.472;2023-08-06T04:45:09;7.25;;;4.63;;
50769;SDS011;36740;48.698;11.472;2023-08-06T04:51:21;10.77;;;6.03;;
50769;SDS011;36740;48.698;11.472;2023-08-06T04:58:01;7.70;;;4.45;;
50769;SDS011;36740;48.698;11.472;2023-08-06T05:01:11;9.27;;;3.70;;
50769;SDS011;36740;48.698;11.472;2023-08-06T05:14:37;7.28;;;4.15;;
50769;SDS011;36740;48.698;11.472;2023-08-06T05:17:27;7.53;;;3.63;;
50769;SDS011;36740;48.698;11.472;2023-08-06T05:20:20;5.63;;;3.55;;
50769;SDS011;36740;48.698;11.472;2023-08-06T05:23:27;5.97;;;3.50;;
50769;SDS011;36740;48.698;11.472;2023-08-06T05:29:45;6.88;;;3.75;;
50769;SDS011;36740;48.698;11.472;2023-08-06T05:33:01;6.80;;;3.50;;
50769;SDS011;36740;48.698;11.472;2023-08-06T05:38:55;5.18;;;3.78;;
50769;SDS011;36740;48.698;11.472;2023-08-06T05:41:42;5.10;;;3.58;;
50769;SDS011;36740;48.698;11.472;2023-08-06T05:44:54;4.47;;;3.13;;
50769;SDS011;36740;48.698;11.472;2023-08-06T05:47:59;6.13;;;3.60;;
50769;SDS011;36740;48.698;11.472;2023-08-06T05:50:51;5.35;;;2.92;;
50769;SDS011;36740;48.698;11.472;2023-08-06T05:53:58;6.32;;;3.42;;
50769;SDS011;36740;48.698;11.472;2023-08-06T05:57:03;5.10;;;3.15;;
50769;SDS011;36740;48.698;11.472;2023-08-06T05:59:55;5.85;;;3.03;;
50769;SDS011;36740;48.698;11.472;2023-08-06T06:02:51;3.70;;;2.33;;
50769;SDS011;36740;48.698;11.472;2023-08-06T06:05:42;4.28;;;2.97;;
50769;SDS011;36740;48.698;11.472;2023-08-06T06:08:28;7.97;;;3.70;;
50769;SDS011;36740;48.698;11.472;2023-08-06T06:11:15;5.55;;;2.90;;
50769;SDS011;36740;48.698;11.472;2023-08-06T06:14:04;4.30;;;2.17;;
50769;SDS011;36740;48.698;11.472;2023-08-06T06:16:59;2.50;;;2.20;;
50769;SDS011;36740;48.698;11.472;2023-08-06T06:19:52;3.25;;;2.30;;
50769;SDS011;36740;48.698;11.472;2023-08-06T06:22:43;4.43;;;2.60;;
50769;SDS011;36740;48.698;11.472;2023-08-06T06:43:03;2.70;;;1.60;;
50769;SDS011;36740;48.698;11.472;2023-08-06T06:46:11;3.85;;;2.22;;
50769;SDS011;36740;48.698;11.472;2023-08-06T06:49:05;3.00;;;1.77;;
50769;SDS011;36740;48.698;11.472;2023-08-06T06:52:18;6.13;;;2.63;;
50769;SDS011;36740;48.698;11.472;2023-08-06T06:55:06;5.65;;;2.65;;
50769;SDS011;36740;48.698;11.472;2023-08-06T06:58:17;4.32;;;2.38;;
50769;SDS011;36740;48.698;11.472;2023-08-06T07:01:14;8.88;;;2.17;;
50769;SDS011;36740;48.698;11.472;2023-08-06T07:17:34;15.27;;;2.45;;
50769;SDS011;36740;48.698;11.472;2023-08-06T07:20:23;2.55;;;1.77;;
50769;SDS011;36740;48.698;11.472;2023-08-06T07:23:17;3.38;;;1.83;;
50769;SDS011;36740;48.698;11.472;2023-08-06T07:26:06;3.47;;;2.05;;
50769;SDS011;36740;48.698;11.472;2023-08-06T07:28:56;2.80;;;1.75;;
50769;SDS011;36740;48.698;11.472;2023-08-06T07:31:43;4.25;;;2.30;;
50769;SDS011;36740;48.698;11.472;2023-08-06T07:34:29;3.03;;;1.75;;
50769;SDS011;36740;48.698;11.472;2023-08-06T07:37:30;3.38;;;1.48;;
50769;SDS011;36740;48.698;11.472;2023-08-06T07:40:47;2.55;;;1.85;;
50769;SDS011;36740;48.698;11.472;2023-08-06T07:43:46;4.97;;;1.95;;
50769;SDS011;36740;48.698;11.472;2023-08-06T07:46:44;2.55;;;1.65;;
50769;SDS011;36740;48.698;11.472;2023-08-06T07:49:33;2.80;;;1.33;;
50769;SDS011;36740;48.698;11.472;2023-08-06T07:52:25;2.00;;;1.63;;
50769;SDS011;36740;48.698;11.472;2023-08-06T07:55:19;10.80;;;2.30;;
50769;SDS011;36740;48.698;11.472;2023-08-06T07:58:12;2.80;;;1.38;;
50769;SDS011;36740;48.698;11.472;2023-08-06T08:01:11;1.05;;;0.85;;
50769;SDS011;36740;48.698;11.472;2023-08-06T08:04:25;1.13;;;1.00;;
50769;SDS011;36740;48.698;11.472;2023-08-06T08:07:18;0.98;;;0.98;;
50769;SDS011;36740;48.698;11.472;2023-08-06T08:10:09;0.80;;;0.80;;
50769;SDS011;36740;48.698;11.472;2023-08-06T08:13:16;1.80;;;0.93;;
50769;SDS011;36740;48.698;11.472;2023-08-06T08:19:12;2.63;;;1.30;;
50769;SDS011;36740;48.698;11.472;2023-08-06T08:22:07;2.03;;;1.05;;
50769;SDS011;36740;48.698;11.472;2023-08-06T08:25:07;2.08;;;1.75;;
50769;SDS011;36740;48.698;11.472;2023-08-06T08:28:22;2.15;;;1.20;;
50769;SDS011;36740;48.698;11.472;2023-08-06T08:31:21;1.30;;;1.08;;
50769;SDS011;36740;48.698;11.472;2023-08-06T08:34:26;5.18;;;1.80;;
50769;SDS011;36740;48.698;11.472;2023-08-06T08:37:15;3.50;;;1.98;;
50769;SDS011;36740;48.698;11.472;2023-08-06T08:40:02;11.55;;;1.13;;
50769;SDS011;36740;48.698;11.472;2023-08-06T08:43:07;2.55;;;0.93;;
50769;SDS011;36740;48.698;11.472;2023-08-06T08:46:06;2.72;;;1.08;;
50769;SDS011;36740;48.698;11.472;2023-08-06T08:52:53;3.40;;;1.30;;
50769;SDS011;36740;48.698;11.472;2023-08-06T08:55:52;2.95;;;1.63;;
50769;SDS011;36740;48.698;11.472;2023-08-06T08:58:38;0.80;;;0.80;;
50769;SDS011;36740;48.698;11.472;2023-08-06T09:01:25;1.77;;;1.58;;
50769;SDS011;36740;48.698;11.472;2023-08-06T09:04:32;1.58;;;0.95;;
50769;SDS011;36740;48.698;11.472;2023-08-06T09:07:21;0.82;;;0.82;;
50769;SDS011;36740;48.698;11.472;2023-08-06T09:10:11;1.48;;;1.05;;
50769;SDS011;36740;48.698;11.472;2023-08-06T09:12:59;2.05;;;1.17;;
50769;SDS011;36740;48.698;11.472;2023-08-06T09:15:52;1.15;;;1.05;;
50769;SDS011;36740;48.698;11.472;2023-08-06T09:18:41;1.17;;;1.00;;
50769;SDS011;36740;48.698;11.472;2023-08-06T09:21:30;1.15;;;0.90;;
50769;SDS011;36740;48.698;11.472;2023-08-06T09:24:16;0.68;;;0.68;;
50769;SDS011;36740;48.698;11.472;2023-08-06T09:27:08;1.17;;;0.60;;
50769;SDS011;36740;48.698;11.472;2023-08-06T09:30:02;8.50;;;1.33;;
50769;SDS011;36740;48.698;11.472;2023-08-06T09:36:26;1.13;;;1.02;;
50769;SDS011;36740;48.698;11.472;2023-08-06T09:39:15;0.45;;;0.45;;
50769;SDS011;36740;48.698;11.472;2023-08-06T09:42:03;1.90;;;1.10;;
50769;SDS011;36740;48.698;11.472;2023-08-06T09:44:50;0.80;;;0.80;;
50769;SDS011;36740;48.698;11.472;2023-08-06T09:47:36;0.82;;;0.82;;
50769;SDS011;36740;48.698;11.472;2023-08-06T09:50:22;1.38;;;0.82;;
50769;SDS011;36740;48.698;11.472;2023-08-06T09:53:08;1.02;;;0.73;;
50769;SDS011;36740;48.698;11.472;2023-08-06T09:55:53;1.05;;;0.75;;
50769;SDS011;36740;48.698;11.472;2023-08-06T09:58:41;0.60;;;0.60;;
50769;SDS011;36740;48.698;11.472;2023-08-06T10:01:33;1.08;;;0.60;;
50769;SDS011;36740;48.698;11.472;2023-08-06T10:04:19;1.10;;;0.68;;
50769;SDS011;36740;48.698;11.472;2023-08-06T10:07:05;1.92;;;0.90;;
50769;SDS011;36740;48.698;11.472;2023-08-06T10:09:51;1.08;;;0.60;;
50769;SDS011;36740;48.698;11.472;2023-08-06T10:12:51;0.50;;;0.50;;
50769;SDS011;36740;48.698;11.472;2023-08-06T10:15:37;1.35;;;1.17;;
50769;SDS011;36740;48.698;11.472;2023-08-06T10:18:23;9.00;;;1.73;;
50769;SDS011;36740;48.698;11.472;2023-08-06T10:21:09;0.82;;;0.70;;
50769;SDS011;36740;48.698;11.472;2023-08-06T10:23:55;1.00;;;0.90;;
50769;SDS011;36740;48.698;11.472;2023-08-06T10:26:43;0.65;;;0.65;;
50769;SDS011;36740;48.698;11.472;2023-08-06T10:40:07;0.50;;;0.50;;
50769;SDS011;36740;48.698;11.472;2023-08-06T10:42:53;0.50;;;0.50;;
50769;SDS011;36740;48.698;11.472;2023-08-06T10:48:45;0.68;;;0.50;;
50769;SDS011;36740;48.698;11.472;2023-08-06T10:51:31;0.50;;;0.50;;
50769;SDS011;36740;48.698;11.472;2023-08-06T10:54:16;0.50;;;0.50;;
50769;SDS011;36740;48.698;11.472;2023-08-06T10:57:08;0.80;;;0.80;;
50769;SDS011;36740;48.698;11.472;2023-08-06T10:59:54;1.75;;;0.82;;
50769;SDS011;36740;48.698;11.472;2023-08-06T11:02:39;0.60;;;0.60;;
50769;SDS011;36740;48.698;11.472;2023-08-06T11:05:29;0.50;;;0.50;;
50769;SDS011;36740;48.698;11.472;2023-08-06T11:08:27;0.60;;;0.60;;
50769;SDS011;36740;48.698;11.472;2023-08-06T11:11:14;0.80;;;0.73;;
50769;SDS011;36740;48.698;11.472;2023-08-06T11:14:00;0.90;;;0.88;;
50769;SDS011;36740;48.698;11.472;2023-08-06T11:16:45;0.50;;;0.50;;
50769;SDS011;36740;48.698;11.472;2023-08-06T11:19:31;0.98;;;0.70;;
50769;SDS011;36740;48.698;11.472;2023-08-06T11:22:17;0.68;;;0.68;;
50769;SDS011;36740;48.698;11.472;2023-08-06T11:25:03;5.43;;;1.58;;
50769;SDS011;36740;48.698;11.472;2023-08-06T11:27:50;1.30;;;1.10;;
50769;SDS011;36740;48.698;11.472;2023-08-06T11:30:35;3.35;;;1.33;;
50769;SDS011;36740;48.698;11.472;2023-08-06T11:33:23;1.40;;;1.30;;
50769;SDS011;36740;48.698;11.472;2023-08-06T11:36:10;0.82;;;0.82;;
50769;SDS011;36740;48.698;11.472;2023-08-06T11:38:57;0.98;;;0.88;;
50769;SDS011;36740;48.698;11.472;2023-08-06T11:41:43;0.70;;;0.70;;
50769;SDS011;36740;48.698;11.472;2023-08-06T11:44:30;0.70;;;0.70;;
50769;SDS011;36740;48.698;11.472;2023-08-06T11:47:19;1.17;;;1.08;;
50769;SDS011;36740;48.698;11.472;2023-08-06T11:50:05;9.98;;;1.50;;
50769;SDS011;36740;48.698;11.472;2023-08-06T11:52:58;0.60;;;0.60;;
50769;SDS011;36740;48.698;11.472;2023-08-06T11:55:44;0.60;;;0.60;;
50769;SDS011;36740;48.698;11.472;2023-08-06T11:58:30;0.60;;;0.60;;
50769;SDS011;36740;48.698;11.472;2023-08-06T12:01:18;0.60;;;0.60;;
50769;SDS011;36740;48.698;11.472;2023-08-06T12:04:04;0.80;;;0.80;;
50769;SDS011;36740;48.698;11.472;2023-08-06T12:06:50;0.77;;;0.52;;
50769;SDS011;36740;48.698;11.472;2023-08-06T12:09:37;0.52;;;0.52;;
50769;SDS011;36740;48.698;11.472;2023-08-06T12:12:23;2.42;;;1.27;;
50769;SDS011;36740;48.698;11.472;2023-08-06T12:15:09;0.60;;;0.60;;
50769;SDS011;36740;48.698;11.472;2023-08-06T12:17:55;3.10;;;1.45;;
50769;SDS011;36740;48.698;11.472;2023-08-06T12:20:41;0.60;;;0.60;;
50769;SDS011;36740;48.698;11.472;2023-08-06T12:23:26;0.52;;;0.52;;
50769;SDS011;36740;48.698;11.472;2023-08-06T12:26:12;7.68;;;0.95;;
50769;SDS011;36740;48.698;11.472;2023-08-06T12:28:57;0.70;;;0.70;;
50769;SDS011;36740;48.698;11.472;2023-08-06T12:31:43;1.05;;;0.70;;
50769;SDS011;36740;48.698;11.472;2023-08-06T12:34:29;0.50;;;0.50;;
50769;SDS011;36740;48.698;11.472;2023-08-06T12:37:14;0.65;;;0.65;;
50769;SDS011;36740;48.698;11.472;2023-08-06T12:40:00;0.75;;;0.75;;
50769;SDS011;36740;48.698;11.472;2023-08-06T12:42:46;0.75;;;0.75;;
50769;SDS011;36740;48.698;11.472;2023-08-06T12:45:31;0.60;;;0.60;;
50769;SDS011;36740;48.698;11.472;2023-08-06T12:48:17;1.10;;;1.02;;
50769;SDS011;36740;48.698;11.472;2023-08-06T12:51:04;0.90;;;0.90;;
50769;SDS011;36740;48.698;11.472;2023-08-06T12:53:50;0.50;;;0.50;;
50769;SDS011;36740;48.698;11.472;2023-08-06T12:56:35;0.82;;;0.82;;
50769;SDS011;36740;48.698;11.472;2023-08-06T12:59:22;0.50;;;0.50;;
50769;SDS011;36740;48.698;11.472;2023-08-06T13:02:08;0.75;;;0.75;;
50769;SDS011;36740;48.698;11.472;2023-08-06T13:04:53;0.70;;;0.70;;
50769;SDS011;36740;48.698;11.472;2023-08-06T13:07:39;0.60;;;0.60;;
50769;SDS011;36740;48.698;11.472;2023-08-06T13:10:24;0.90;;;0.90;;
50769;SDS011;36740;48.698;11.472;2023-08-06T13:13:11;0.50;;;0.50;;
50769;SDS011;36740;48.698;11.472;2023-08-06T13:15:56;0.70;;;0.70;;
50769;SDS011;36740;48.698;11.472;2023-08-06T13:18:42;0.52;;;0.52;;
50769;SDS011;36740;48.698;11.472;2023-08-06T13:21:31;0.50;;;0.50;;
50769;SDS011;36740;48.698;11.472;2023-08-06T13:24:18;0.60;;;0.60;;
50769;SDS011;36740;48.698;11.472;2023-08-06T13:27:04;0.50;;;0.50;;
50769;SDS011;36740;48.698;11.472;2023-08-06T13:29:50;0.60;;;0.60;;
50769;SDS011;36740;48.698;11.472;2023-08-06T13:32:35;0.50;;;0.50;;
50769;SDS011;36740;48.698;11.472;2023-08-06T13:35:22;0.65;;;0.65;;
50769;SDS011;36740;48.698;11.472;2023-08-06T13:38:08;2.45;;;1.15;;
50769;SDS011;36740;48.698;11.472;2023-08-06T13:40:54;0.73;;;0.50;;
50769;SDS011;36740;48.698;11.472;2023-08-06T13:43:39;1.20;;;0.60;;
50769;SDS011;36740;48.698;11.472;2023-08-06T13:46:25;0.70;;;0.70;;
50769;SDS011;36740;48.698;11.472;2023-08-06T13:49:11;2.05;;;0.80;;
50769;SDS011;36740;48.698;11.472;2023-08-06T13:51:56;3.80;;;1.83;;
50769;SDS011;36740;48.698;11.472;2023-08-06T13:54:42;0.77;;;0.77;;
50769;SDS011;36740;48.698;11.472;2023-08-06T13:57:28;0.93;;;0.77;;
50769;SDS011;36740;48.698;11.472;2023-08-06T14:00:14;0.63;;;0.63;;
50769;SDS011;36740;48.698;11.472;2023-08-06T14:03:00;2.33;;;0.90;;
50769;SDS011;36740;48.698;11.472;2023-08-06T14:05:54;1.15;;;0.70;;
50769;SDS011;36740;48.698;11.472;2023-08-06T14:08:42;1.55;;;0.95;;
50769;SDS011;36740;48.698;11.472;2023-08-06T14:11:28;0.93;;;0.70;;
50769;SDS011;36740;48.698;11.472;2023-08-06T14:14:14;0.88;;;0.88;;
50769;SDS011;36740;48.698;11.472;2023-08-06T14:16:59;3.95;;;1.10;;
50769;SDS011;36740;48.698;11.472;2023-08-06T14:19:45;0.95;;;0.80;;
50769;SDS011;36740;48.698;11.472;2023-08-06T14:22:31;0.68;;;0.68;;
50769;SDS011;36740;48.698;11.472;2023-08-06T14:25:16;1.38;;;0.90;;
50769;SDS011;36740;48.698;11.472;2023-08-06T14:28:02;0.68;;;0.68;;
50769;SDS011;36740;48.698;11.472;2023-08-06T14:30:48;0.55;;;0.55;;
50769;SDS011;36740;48.698;11.472;2023-08-06T14:33:33;0.80;;;0.80;;
50769;SDS011;36740;48.698;11.472;2023-08-06T14:36:19;1.00;;;1.00;;
50769;SDS011;36740;48.698;11.472;2023-08-06T14:39:07;1.15;;;0.93;;
50769;SDS011;36740;48.698;11.472;2023-08-06T14:41:56;7.28;;;1.45;;
50769;SDS011;36740;48.698;11.472;2023-08-06T14:44:42;0.80;;;0.80;;
50769;SDS011;36740;48.698;11.472;2023-08-06T14:47:28;1.40;;;0.65;;
50769;SDS011;36740;48.698;11.472;2023-08-06T14:50:14;1.33;;;0.80;;
50769;SDS011;36740;48.698;11.472;2023-08-06T14:52:59;0.68;;;0.68;;
50769;SDS011;36740;48.698;11.472;2023-08-06T14:55:47;0.60;;;0.60;;
50769;SDS011;36740;48.698;11.472;2023-08-06T14:58:33;0.90;;;0.90;;
50769;SDS011;36740;48.698;11.472;2023-08-06T15:01:19;1.25;;;1.15;;
50769;SDS011;36740;48.698;11.472;2023-08-06T15:04:05;0.85;;;0.85;;
50769;SDS011;36740;48.698;11.472;2023-08-06T15:06:50;1.80;;;1.10;;
50769;SDS011;36740;48.698;11.472;2023-08-06T15:09:36;1.30;;;1.17;;
50769;SDS011;36740;48.698;11.472;2023-08-06T15:12:21;1.50;;;1.35;;
50769;SDS011;36740;48.698;11.472;2023-08-06T15:15:07;4.78;;;1.70;;
50769;SDS011;36740;48.698;11.472;2023-08-06T15:17:53;2.60;;;1.00;;
50769;SDS011;36740;48.698;11.472;2023-08-06T15:20:42;3.17;;;1.52;;
50769;SDS011;36740;48.698;11.472;2023-08-06T15:23:27;1.48;;;1.30;;
50769;SDS011;36740;48.698;11.472;2023-08-06T15:26:13;3.03;;;1.80;;
50769;SDS011;36740;48.698;11.472;2023-08-06T15:28:59;1.00;;;0.90;;
50769;SDS011;36740;48.698;11.472;2023-08-06T15:31:45;1.95;;;1.02;;
50769;SDS011;36740;48.698;11.472;2023-08-06T15:34:31;1.30;;;1.20;;
50769;SDS011;36740;48.698;11.472;2023-08-06T15:37:16;1.10;;;1.00;;
50769;SDS011;36740;48.698;11.472;2023-08-06T15:40:03;2.03;;;1.67;;
50769;SDS011;36740;48.698;11.472;2023-08-06T15:42:49;2.13;;;1.52;;
50769;SDS011;36740;48.698;11.472;2023-08-06T15:45:34;1.83;;;1.10;;
50769;SDS011;36740;48.698;11.472;2023-08-06T15:48:20;1.73;;;1.50;;
50769;SDS011;36740;48.698;11.472;2023-08-06T15:51:06;0.85;;;0.85;;
50769;SDS011;36740;48.698;11.472;2023-08-06T15:53:51;1.10;;;1.00;;
50769;SDS011;36740;48.698;11.472;2023-08-06T15:56:37;1.30;;;1.02;;
50769;SDS011;36740;48.698;11.472;2023-08-06T15:59:26;2.15;;;1.08;;
50769;SDS011;36740;48.698;11.472;2023-08-06T16:02:12;3.08;;;1.00;;
50769;SDS011;36740;48.698;11.472;2023-08-06T16:05:01;1.40;;;1.27;;
50769;SDS011;36740;48.698;11.472;2023-08-06T16:07:49;3.90;;;1.40;;
50769;SDS011;36740;48.698;11.472;2023-08-06T16:10:34;1.38;;;1.02;;
50769;SDS011;36740;48.698;11.472;2023-08-06T16:13:20;1.38;;;1.15;;
50769;SDS011;36740;48.698;11.472;2023-08-06T16:16:06;2.05;;;1.23;;
50769;SDS011;36740;48.698;11.472;2023-08-06T16:18:51;0.93;;;0.82;;
50769;SDS011;36740;48.698;11.472;2023-08-06T16:21:37;1.00;;;0.90;;
50769;SDS011;36740;48.698;11.472;2023-08-06T16:24:22;1.45;;;0.80;;
50769;SDS011;36740;48.698;11.472;2023-08-06T16:27:08;1.77;;;1.02;;
50769;SDS011;36740;48.698;11.472;2023-08-06T16:29:54;3.83;;;1.90;;
50769;SDS011;36740;48.698;11.472;2023-08-06T16:32:39;1.25;;;1.15;;
50769;SDS011;36740;48.698;11.472;2023-08-06T16:35:26;3.08;;;1.60;;
50769;SDS011;36740;48.698;11.472;2023-08-06T16:38:13;1.02;;;1.02;;
50769;SDS011;36740;48.698;11.472;2023-08-06T16:41:01;1.35;;;1.00;;
50769;SDS011;36740;48.698;11.472;2023-08-06T16:43:49;0.80;;;0.80;;
50769;SDS011;36740;48.698;11.472;2023-08-06T16:46:35;4.78;;;1.02;;
50769;SDS011;36740;48.698;11.472;2023-08-06T16:49:21;1.73;;;1.20;;
50769;SDS011;36740;48.698;11.472;2023-08-06T16:52:07;2.83;;;1.45;;
50769;SDS011;36740;48.698;11.472;2023-08-06T16:54:52;0.80;;;0.80;;
50769;SDS011;36740;48.698;11.472;2023-08-06T16:57:39;3.45;;;0.73;;
50769;SDS011;36740;48.698;11.472;2023-08-06T17:00:31;1.63;;;0.80;;
50769;SDS011;36740;48.698;11.472;2023-08-06T17:03:17;1.40;;;1.27;;
50769;SDS011;36740;48.698;11.472;2023-08-06T17:06:03;0.80;;;0.70;;
50769;SDS011;36740;48.698;11.472;2023-08-06T17:08:48;1.35;;;0.85;;
50769;SDS011;36740;48.698;11.472;2023-08-06T17:11:34;1.20;;;0.90;;
50769;SDS011;36740;48.698;11.472;2023-08-06T17:14:21;1.75;;;1.10;;
50769;SDS011;36740;48.698;11.472;2023-08-06T17:17:07;1.98;;;1.20;;
50769;SDS011;36740;48.698;11.472;2023-08-06T17:19:53;3.83;;;1.20;;
50769;SDS011;36740;48.698;11.472;2023-08-06T17:22:42;0.88;;;0.88;;
50769;SDS011;36740;48.698;11.472;2023-08-06T17:25:27;1.42;;;0.90;;
50769;SDS011;36740;48.698;11.472;2023-08-06T17:28:13;1.20;;;0.90;;
50769;SDS011;36740;48.698;11.472;2023-08-06T17:30:59;1.15;;;0.65;;
50769;SDS011;36740;48.698;11.472;2023-08-06T17:33:44;0.98;;;0.95;;
50769;SDS011;36740;48.698;11.472;2023-08-06T17:36:30;1.17;;;0.85;;
50769;SDS011;36740;48.698;11.472;2023-08-06T17:39:16;1.95;;;1.00;;
50769;SDS011;36740;48.698;11.472;2023-08-06T17:42:02;0.93;;;0.93;;
50769;SDS011;36740;48.698;11.472;2023-08-06T17:44:48;1.38;;;1.27;;
50769;SDS011;36740;48.698;11.472;2023-08-06T17:47:34;1.35;;;0.93;;
50769;SDS011;36740;48.698;11.472;2023-08-06T17:50:20;1.13;;;1.00;;
50769;SDS011;36740;48.698;11.472;2023-08-06T17:53:05;2.60;;;1.20;;
50769;SDS011;36740;48.698;11.472;2023-08-06T17:55:51;0.70;;;0.70;;
50769;SDS011;36740;48.698;11.472;2023-08-06T17:58:37;5.03;;;1.52;;
50769;SDS011;36740;48.698;11.472;2023-08-06T18:01:23;0.88;;;0.85;;
50769;SDS011;36740;48.698;11.472;2023-08-06T18:04:08;0.70;;;0.70;;
50769;SDS011;36740;48.698;11.472;2023-08-06T18:06:54;3.00;;;1.35;;
50769;SDS011;36740;48.698;11.472;2023-08-06T18:09:40;1.15;;;0.80;;
50769;SDS011;36740;48.698;11.472;2023-08-06T18:12:25;1.40;;;0.80;;
50769;SDS011;36740;48.698;11.472;2023-08-06T18:15:11;1.67;;;0.80;;
50769;SDS011;36740;48.698;11.472;2023-08-06T18:17:57;1.55;;;1.10;;
50769;SDS011;36740;48.698;11.472;2023-08-06T18:20:44;1.52;;;1.42;;
50769;SDS011;36740;48.698;11.472;2023-08-06T18:23:30;2.10;;;1.40;;
50769;SDS011;36740;48.698;11.472;2023-08-06T18:26:15;0.90;;;0.90;;
50769;SDS011;36740;48.698;11.472;2023-08-06T18:29:01;1.52;;;1.10;;
50769;SDS011;36740;48.698;11.472;2023-08-06T18:31:47;0.95;;;0.82;;
50769;SDS011;36740;48.698;11.472;2023-08-06T18:34:33;1.73;;;0.95;;
50769;SDS011;36740;48.698;11.472;2023-08-06T18:37:19;0.80;;;0.80;;
50769;SDS011;36740;48.698;11.472;2023-08-06T18:40:06;2.25;;;1.50;;
50769;SDS011;36740;48.698;11.472;2023-08-06T18:42:51;1.05;;;1.05;;
50769;SDS011;36740;48.698;11.472;2023-08-06T18:45:37;1.42;;;1.20;;
50769;SDS011;36740;48.698;11.472;2023-08-06T18:48:25;1.35;;;1.00;;
50769;SDS011;36740;48.698;11.472;2023-08-06T18:51:11;1.10;;;0.70;;
50769;SDS011;36740;48.698;11.472;2023-08-06T18:53:57;1.33;;;1.23;;
50769;SDS011;36740;48.698;11.472;2023-08-06T18:56:42;3.03;;;1.20;;
50769;SDS011;36740;48.698;11.472;2023-08-06T18:59:28;1.05;;;0.98;;
50769;SDS011;36740;48.698;11.472;2023-08-06T19:02:15;0.80;;;0.80;;
50769;SDS011;36740;48.698;11.472;2023-08-06T19:05:01;2.90;;;1.52;;
50769;SDS011;36740;48.698;11.472;2023-08-06T19:07:48;0.88;;;0.80;;
50769;SDS011;36740;48.698;11.472;2023-08-06T19:10:34;1.42;;;1.00;;
50769;SDS011;36740;48.698;11.472;2023-08-06T19:13:20;1.55;;;1.10;;
50769;SDS011;36740;48.698;11.472;2023-08-06T19:16:07;2.05;;;1.60;;
50769;SDS011;36740;48.698;11.472;2023-08-06T19:18:53;1.85;;;1.00;;
50769;SDS011;36740;48.698;11.472;2023-08-06T19:21:39;1.30;;;1.00;;